sensor_id;sensor_type;location;lat;lon;timestamp;P1;durP1;ratioP1;P2;durP2;ratioP2
52668;SDS011;59898;52.786;6.892;2022-10-31T00:03:19;20.02;;;14.00;;
52668;SDS011;59898;52.786;6.892;2022-10-31T00:06:39;25.05;;;15.23;;
52668;SDS011;59898;52.786;6.892;2022-10-31T00:10:00;21.00;;;14.07;;
52668;SDS011;59898;52.786;6.892;2022-10-31T00:13:21;24.52;;;15.70;;
52668;SDS011;59898;52.786;6.892;2022-10-31T00:16:41;22.05;;;14.02;;
52668;SDS011;59898;52.786;6.892;2022-10-31T00:20:02;23.08;;;13.65;;
52668;SDS011;59898;52.786;6.892;2022-10-31T00:23:23;17.65;;;13.88;;
52668;SDS011;59898;52.786;6.892;2022-10-31T00:26:44;21.38;;;14.27;;
52668;SDS011;59898;52.786;6.892;2022-10-31T00:30:05;20.63;;;13.88;;
52668;SDS011;59898;52.786;6.892;2022-10-31T00:33:26;23.05;;;14.10;;
52668;SDS011;59898;52.786;6.892;2022-10-31T00:36:47;20.35;;;13.80;;
52668;SDS011;59898;52.786;6.892;2022-10-31T00:40:08;28.52;;;14.13;;
52668;SDS011;59898;52.786;6.892;2022-10-31T00:43:29;17.88;;;13.63;;
52668;SDS011;59898;52.786;6.892;2022-10-31T00:46:50;19.73;;;14.13;;
52668;SDS011;59898;52.786;6.892;2022-10-31T00:50:10;25.02;;;13.82;;
52668;SDS011;59898;52.786;6.892;2022-10-31T00:53:31;22.05;;;13.93;;
52668;SDS011;59898;52.786;6.892;2022-10-31T00:56:52;22.85;;;15.38;;
52668;SDS011;59898;52.786;6.892;2022-10-31T01:00:13;22.52;;;13.88;;
52668;SDS011;59898;52.786;6.892;2022-10-31T01:03:34;19.88;;;12.77;;
52668;SDS011;59898;52.786;6.892;2022-10-31T01:06:55;20.15;;;13.35;;
52668;SDS011;59898;52.786;6.892;2022-10-31T01:10:16;22.67;;;13.25;;
52668;SDS011;59898;52.786;6.892;2022-10-31T01:13:38;17.00;;;12.80;;
52668;SDS011;59898;52.786;6.892;2022-10-31T01:16:58;22.98;;;15.43;;
52668;SDS011;59898;52.786;6.892;2022-10-31T01:20:19;18.77;;;13.52;;
52668;SDS011;59898;52.786;6.892;2022-10-31T01:23:40;19.85;;;14.52;;
52668;SDS011;59898;52.786;6.892;2022-10-31T01:27:01;19.45;;;13.63;;
52668;SDS011;59898;52.786;6.892;2022-10-31T01:30:23;20.20;;;14.95;;
52668;SDS011;59898;52.786;6.892;2022-10-31T01:33:43;21.20;;;13.90;;
52668;SDS011;59898;52.786;6.892;2022-10-31T01:37:04;21.65;;;15.93;;
52668;SDS011;59898;52.786;6.892;2022-10-31T01:40:28;26.42;;;15.45;;
52668;SDS011;59898;52.786;6.892;2022-10-31T01:47:15;24.17;;;14.80;;
52668;SDS011;59898;52.786;6.892;2022-10-31T01:50:38;20.02;;;13.50;;
52668;SDS011;59898;52.786;6.892;2022-10-31T01:54:02;23.05;;;14.50;;
52668;SDS011;59898;52.786;6.892;2022-10-31T01:57:25;23.30;;;15.30;;
52668;SDS011;59898;52.786;6.892;2022-10-31T02:00:48;21.95;;;13.73;;
52668;SDS011;59898;52.786;6.892;2022-10-31T02:04:13;19.48;;;13.63;;
52668;SDS011;59898;52.786;6.892;2022-10-31T02:07:39;15.10;;;11.13;;
52668;SDS011;59898;52.786;6.892;2022-10-31T02:11:14;17.35;;;11.68;;
52668;SDS011;59898;52.786;6.892;2022-10-31T02:14:35;19.60;;;12.07;;
52668;SDS011;59898;52.786;6.892;2022-10-31T02:17:57;16.88;;;11.70;;
52668;SDS011;59898;52.786;6.892;2022-10-31T02:21:21;17.98;;;12.95;;
52668;SDS011;59898;52.786;6.892;2022-10-31T02:25:09;17.50;;;11.25;;
52668;SDS011;59898;52.786;6.892;2022-10-31T02:47:36;16.67;;;9.70;;
52668;SDS011;59898;52.786;6.892;2022-10-31T02:50:59;17.70;;;11.43;;
52668;SDS011;59898;52.786;6.892;2022-10-31T02:54:23;14.85;;;10.55;;
52668;SDS011;59898;52.786;6.892;2022-10-31T03:08:30;14.82;;;11.45;;
52668;SDS011;59898;52.786;6.892;2022-10-31T03:18:59;18.25;;;11.40;;
52668;SDS011;59898;52.786;6.892;2022-10-31T03:22:24;16.90;;;11.25;;
52668;SDS011;59898;52.786;6.892;2022-10-31T03:25:48;21.15;;;12.23;;
52668;SDS011;59898;52.786;6.892;2022-10-31T03:29:11;17.73;;;12.02;;
52668;SDS011;59898;52.786;6.892;2022-10-31T03:32:39;19.60;;;12.57;;
52668;SDS011;59898;52.786;6.892;2022-10-31T03:36:08;16.42;;;12.48;;
52668;SDS011;59898;52.786;6.892;2022-10-31T03:39:31;18.13;;;12.00;;
52668;SDS011;59898;52.786;6.892;2022-10-31T03:42:55;20.85;;;13.55;;
52668;SDS011;59898;52.786;6.892;2022-10-31T03:46:20;21.95;;;12.98;;
52668;SDS011;59898;52.786;6.892;2022-10-31T03:49:41;18.20;;;12.23;;
52668;SDS011;59898;52.786;6.892;2022-10-31T03:53:22;21.55;;;12.93;;
52668;SDS011;59898;52.786;6.892;2022-10-31T03:56:53;17.35;;;12.65;;
52668;SDS011;59898;52.786;6.892;2022-10-31T04:00:17;20.40;;;13.38;;
52668;SDS011;59898;52.786;6.892;2022-10-31T04:03:39;24.85;;;15.27;;
52668;SDS011;59898;52.786;6.892;2022-10-31T04:07:01;19.40;;;13.93;;
52668;SDS011;59898;52.786;6.892;2022-10-31T04:10:23;23.05;;;14.15;;
52668;SDS011;59898;52.786;6.892;2022-10-31T04:13:45;19.75;;;13.80;;
52668;SDS011;59898;52.786;6.892;2022-10-31T04:17:09;19.77;;;13.53;;
52668;SDS011;59898;52.786;6.892;2022-10-31T04:20:35;22.60;;;13.20;;
52668;SDS011;59898;52.786;6.892;2022-10-31T04:24:00;20.23;;;14.00;;
52668;SDS011;59898;52.786;6.892;2022-10-31T04:27:20;17.23;;;12.70;;
52668;SDS011;59898;52.786;6.892;2022-10-31T04:30:41;18.45;;;13.60;;
52668;SDS011;59898;52.786;6.892;2022-10-31T04:34:02;22.27;;;13.27;;
52668;SDS011;59898;52.786;6.892;2022-10-31T04:37:22;23.95;;;14.77;;
52668;SDS011;59898;52.786;6.892;2022-10-31T04:40:44;20.75;;;16.08;;
52668;SDS011;59898;52.786;6.892;2022-10-31T04:44:05;18.58;;;14.07;;
52668;SDS011;59898;52.786;6.892;2022-10-31T04:47:26;21.50;;;16.30;;
52668;SDS011;59898;52.786;6.892;2022-10-31T04:50:46;19.80;;;16.02;;
52668;SDS011;59898;52.786;6.892;2022-10-31T04:54:07;22.42;;;16.15;;
52668;SDS011;59898;52.786;6.892;2022-10-31T04:57:28;24.17;;;18.80;;
52668;SDS011;59898;52.786;6.892;2022-10-31T05:00:53;22.42;;;17.23;;
52668;SDS011;59898;52.786;6.892;2022-10-31T05:04:14;22.98;;;15.50;;
52668;SDS011;59898;52.786;6.892;2022-10-31T05:07:39;25.08;;;17.15;;
52668;SDS011;59898;52.786;6.892;2022-10-31T05:11:04;27.70;;;16.50;;
52668;SDS011;59898;52.786;6.892;2022-10-31T05:14:24;27.70;;;15.73;;
52668;SDS011;59898;52.786;6.892;2022-10-31T05:17:45;26.70;;;17.48;;
52668;SDS011;59898;52.786;6.892;2022-10-31T05:21:06;21.63;;;17.73;;
52668;SDS011;59898;52.786;6.892;2022-10-31T05:24:27;22.23;;;15.57;;
52668;SDS011;59898;52.786;6.892;2022-10-31T05:27:48;19.95;;;16.10;;
52668;SDS011;59898;52.786;6.892;2022-10-31T05:31:10;24.17;;;17.30;;
52668;SDS011;59898;52.786;6.892;2022-10-31T05:34:30;24.00;;;17.15;;
52668;SDS011;59898;52.786;6.892;2022-10-31T05:37:51;25.10;;;16.63;;
52668;SDS011;59898;52.786;6.892;2022-10-31T05:41:12;20.65;;;16.13;;
52668;SDS011;59898;52.786;6.892;2022-10-31T05:44:32;24.75;;;17.33;;
52668;SDS011;59898;52.786;6.892;2022-10-31T05:48:02;24.08;;;16.95;;
52668;SDS011;59898;52.786;6.892;2022-10-31T05:51:23;23.60;;;18.05;;
52668;SDS011;59898;52.786;6.892;2022-10-31T05:54:44;27.40;;;18.05;;
52668;SDS011;59898;52.786;6.892;2022-10-31T05:58:05;23.05;;;17.80;;
52668;SDS011;59898;52.786;6.892;2022-10-31T06:01:25;26.30;;;19.75;;
52668;SDS011;59898;52.786;6.892;2022-10-31T06:04:46;24.45;;;17.48;;
52668;SDS011;59898;52.786;6.892;2022-10-31T06:08:07;27.77;;;18.35;;
52668;SDS011;59898;52.786;6.892;2022-10-31T06:11:27;25.88;;;17.55;;
52668;SDS011;59898;52.786;6.892;2022-10-31T06:14:48;26.58;;;18.92;;
52668;SDS011;59898;52.786;6.892;2022-10-31T06:18:09;23.75;;;17.60;;
52668;SDS011;59898;52.786;6.892;2022-10-31T06:21:29;28.30;;;15.98;;
52668;SDS011;59898;52.786;6.892;2022-10-31T06:24:50;21.55;;;16.63;;
52668;SDS011;59898;52.786;6.892;2022-10-31T06:28:11;23.15;;;17.17;;
52668;SDS011;59898;52.786;6.892;2022-10-31T06:31:31;23.52;;;18.23;;
52668;SDS011;59898;52.786;6.892;2022-10-31T06:34:52;25.17;;;18.48;;
52668;SDS011;59898;52.786;6.892;2022-10-31T06:38:13;24.42;;;18.50;;
52668;SDS011;59898;52.786;6.892;2022-10-31T06:41:34;22.23;;;18.75;;
52668;SDS011;59898;52.786;6.892;2022-10-31T06:44:56;28.15;;;19.60;;
52668;SDS011;59898;52.786;6.892;2022-10-31T06:48:17;24.13;;;17.45;;
52668;SDS011;59898;52.786;6.892;2022-10-31T06:51:37;25.98;;;18.15;;
52668;SDS011;59898;52.786;6.892;2022-10-31T06:54:58;27.25;;;17.65;;
52668;SDS011;59898;52.786;6.892;2022-10-31T06:58:19;27.13;;;17.98;;
52668;SDS011;59898;52.786;6.892;2022-10-31T07:01:39;24.63;;;17.65;;
52668;SDS011;59898;52.786;6.892;2022-10-31T07:05:00;25.20;;;18.13;;
52668;SDS011;59898;52.786;6.892;2022-10-31T07:08:21;25.40;;;18.15;;
52668;SDS011;59898;52.786;6.892;2022-10-31T07:11:41;25.45;;;18.95;;
52668;SDS011;59898;52.786;6.892;2022-10-31T07:15:02;29.65;;;19.27;;
52668;SDS011;59898;52.786;6.892;2022-10-31T07:18:23;28.77;;;19.05;;
52668;SDS011;59898;52.786;6.892;2022-10-31T07:21:44;26.05;;;19.48;;
52668;SDS011;59898;52.786;6.892;2022-10-31T07:25:05;31.20;;;20.98;;
52668;SDS011;59898;52.786;6.892;2022-10-31T07:28:26;25.95;;;19.98;;
52668;SDS011;59898;52.786;6.892;2022-10-31T07:31:47;29.77;;;18.90;;
52668;SDS011;59898;52.786;6.892;2022-10-31T07:35:12;31.00;;;19.83;;
52668;SDS011;59898;52.786;6.892;2022-10-31T07:38:37;26.23;;;19.15;;
52668;SDS011;59898;52.786;6.892;2022-10-31T07:41:58;32.50;;;22.40;;
52668;SDS011;59898;52.786;6.892;2022-10-31T07:45:20;34.00;;;22.83;;
52668;SDS011;59898;52.786;6.892;2022-10-31T07:48:41;30.80;;;20.75;;
52668;SDS011;59898;52.786;6.892;2022-10-31T07:52:08;33.03;;;22.73;;
52668;SDS011;59898;52.786;6.892;2022-10-31T07:55:29;35.90;;;21.83;;
52668;SDS011;59898;52.786;6.892;2022-10-31T07:58:50;33.35;;;21.52;;
52668;SDS011;59898;52.786;6.892;2022-10-31T08:02:11;44.25;;;25.83;;
52668;SDS011;59898;52.786;6.892;2022-10-31T08:05:32;36.08;;;24.30;;
52668;SDS011;59898;52.786;6.892;2022-10-31T08:08:53;36.03;;;24.67;;
52668;SDS011;59898;52.786;6.892;2022-10-31T08:12:13;40.92;;;25.33;;
52668;SDS011;59898;52.786;6.892;2022-10-31T08:15:34;28.33;;;21.40;;
52668;SDS011;59898;52.786;6.892;2022-10-31T08:18:58;26.75;;;18.95;;
52668;SDS011;59898;52.786;6.892;2022-10-31T08:22:18;20.90;;;17.38;;
52668;SDS011;59898;52.786;6.892;2022-10-31T08:25:39;23.83;;;16.15;;
52668;SDS011;59898;52.786;6.892;2022-10-31T08:29:01;23.05;;;16.88;;
52668;SDS011;59898;52.786;6.892;2022-10-31T08:32:22;27.52;;;18.55;;
52668;SDS011;59898;52.786;6.892;2022-10-31T08:35:43;24.08;;;17.90;;
52668;SDS011;59898;52.786;6.892;2022-10-31T08:39:04;26.83;;;16.95;;
52668;SDS011;59898;52.786;6.892;2022-10-31T08:42:25;20.90;;;15.57;;
52668;SDS011;59898;52.786;6.892;2022-10-31T08:45:47;20.73;;;16.02;;
52668;SDS011;59898;52.786;6.892;2022-10-31T08:49:09;20.42;;;14.68;;
52668;SDS011;59898;52.786;6.892;2022-10-31T08:52:29;25.35;;;16.83;;
52668;SDS011;59898;52.786;6.892;2022-10-31T08:55:50;21.38;;;16.27;;
52668;SDS011;59898;52.786;6.892;2022-10-31T08:59:11;22.42;;;17.45;;
52668;SDS011;59898;52.786;6.892;2022-10-31T09:02:32;18.92;;;15.02;;
52668;SDS011;59898;52.786;6.892;2022-10-31T09:05:59;21.60;;;16.20;;
52668;SDS011;59898;52.786;6.892;2022-10-31T09:09:22;24.02;;;15.73;;
52668;SDS011;59898;52.786;6.892;2022-10-31T09:12:43;19.98;;;14.85;;
52668;SDS011;59898;52.786;6.892;2022-10-31T09:16:04;22.45;;;15.40;;
52668;SDS011;59898;52.786;6.892;2022-10-31T09:19:25;21.05;;;15.93;;
52668;SDS011;59898;52.786;6.892;2022-10-31T09:22:45;24.13;;;16.90;;
52668;SDS011;59898;52.786;6.892;2022-10-31T09:26:06;19.45;;;14.82;;
52668;SDS011;59898;52.786;6.892;2022-10-31T09:29:27;23.58;;;16.35;;
52668;SDS011;59898;52.786;6.892;2022-10-31T09:32:47;22.45;;;14.70;;
52668;SDS011;59898;52.786;6.892;2022-10-31T09:36:08;27.77;;;15.60;;
52668;SDS011;59898;52.786;6.892;2022-10-31T09:39:29;30.75;;;16.65;;
52668;SDS011;59898;52.786;6.892;2022-10-31T09:50:24;24.35;;;16.17;;
52668;SDS011;59898;52.786;6.892;2022-10-31T09:53:59;24.00;;;17.83;;
52668;SDS011;59898;52.786;6.892;2022-10-31T09:57:36;21.00;;;16.33;;
52668;SDS011;59898;52.786;6.892;2022-10-31T10:00:58;24.70;;;17.45;;
52668;SDS011;59898;52.786;6.892;2022-10-31T10:04:36;22.60;;;16.42;;
52668;SDS011;59898;52.786;6.892;2022-10-31T10:26:21;20.73;;;16.13;;
52668;SDS011;59898;52.786;6.892;2022-10-31T10:29:50;22.70;;;17.08;;
52668;SDS011;59898;52.786;6.892;2022-10-31T10:33:19;29.42;;;17.02;;
52668;SDS011;59898;52.786;6.892;2022-10-31T10:40:25;33.45;;;18.73;;
52668;SDS011;59898;52.786;6.892;2022-10-31T10:43:51;27.60;;;18.08;;
52668;SDS011;59898;52.786;6.892;2022-10-31T10:47:14;30.63;;;18.00;;
52668;SDS011;59898;52.786;6.892;2022-10-31T10:50:53;25.88;;;17.33;;
52668;SDS011;59898;52.786;6.892;2022-10-31T10:58:02;24.67;;;16.52;;
52668;SDS011;59898;52.786;6.892;2022-10-31T11:04:47;27.92;;;13.98;;
52668;SDS011;59898;52.786;6.892;2022-10-31T11:08:26;28.70;;;15.93;;
52668;SDS011;59898;52.786;6.892;2022-10-31T11:11:49;33.70;;;16.63;;
52668;SDS011;59898;52.786;6.892;2022-10-31T11:15:23;24.73;;;17.23;;
52668;SDS011;59898;52.786;6.892;2022-10-31T11:18:46;23.13;;;14.57;;
52668;SDS011;59898;52.786;6.892;2022-10-31T11:22:08;28.38;;;15.90;;
52668;SDS011;59898;52.786;6.892;2022-10-31T11:25:36;23.02;;;14.80;;
52668;SDS011;59898;52.786;6.892;2022-10-31T11:28:57;18.15;;;12.82;;
52668;SDS011;59898;52.786;6.892;2022-10-31T11:32:23;19.73;;;13.10;;
52668;SDS011;59898;52.786;6.892;2022-10-31T11:35:46;23.52;;;15.13;;
52668;SDS011;59898;52.786;6.892;2022-10-31T11:39:13;18.17;;;11.30;;
52668;SDS011;59898;52.786;6.892;2022-10-31T11:46:09;17.02;;;12.50;;
52668;SDS011;59898;52.786;6.892;2022-10-31T11:49:44;21.17;;;13.07;;
52668;SDS011;59898;52.786;6.892;2022-10-31T11:53:13;22.33;;;12.57;;
52668;SDS011;59898;52.786;6.892;2022-10-31T11:56:46;18.10;;;11.55;;
52668;SDS011;59898;52.786;6.892;2022-10-31T12:03:57;20.52;;;12.07;;
52668;SDS011;59898;52.786;6.892;2022-10-31T12:07:27;22.65;;;12.80;;
52668;SDS011;59898;52.786;6.892;2022-10-31T12:14:52;22.65;;;13.15;;
52668;SDS011;59898;52.786;6.892;2022-10-31T12:40:03;19.13;;;9.48;;
52668;SDS011;59898;52.786;6.892;2022-10-31T12:43:48;17.50;;;10.45;;
52668;SDS011;59898;52.786;6.892;2022-10-31T12:51:08;16.48;;;9.80;;
52668;SDS011;59898;52.786;6.892;2022-10-31T13:01:59;11.85;;;7.13;;
52668;SDS011;59898;52.786;6.892;2022-10-31T13:05:31;17.75;;;10.32;;
52668;SDS011;59898;52.786;6.892;2022-10-31T13:08:57;10.80;;;7.18;;
52668;SDS011;59898;52.786;6.892;2022-10-31T13:12:21;10.63;;;7.93;;
52668;SDS011;59898;52.786;6.892;2022-10-31T13:16:28;13.03;;;8.07;;
52668;SDS011;59898;52.786;6.892;2022-10-31T13:19:40;15.07;;;7.63;;
52668;SDS011;59898;52.786;6.892;2022-10-31T13:23:05;12.48;;;7.22;;
52668;SDS011;59898;52.786;6.892;2022-10-31T13:26:43;9.35;;;5.60;;
52668;SDS011;59898;52.786;6.892;2022-10-31T13:30:15;11.85;;;6.22;;
52668;SDS011;59898;52.786;6.892;2022-10-31T13:33:52;7.90;;;6.25;;
52668;SDS011;59898;52.786;6.892;2022-10-31T13:40:44;12.57;;;6.88;;
52668;SDS011;59898;52.786;6.892;2022-10-31T13:44:21;14.00;;;6.88;;
52668;SDS011;59898;52.786;6.892;2022-10-31T13:47:54;11.38;;;7.65;;
52668;SDS011;59898;52.786;6.892;2022-10-31T13:51:27;12.93;;;7.25;;
52668;SDS011;59898;52.786;6.892;2022-10-31T13:54:50;11.13;;;7.30;;
52668;SDS011;59898;52.786;6.892;2022-10-31T14:01:49;8.95;;;6.63;;
52668;SDS011;59898;52.786;6.892;2022-10-31T14:08:52;10.50;;;6.05;;
52668;SDS011;59898;52.786;6.892;2022-10-31T14:12:36;14.90;;;7.88;;
52668;SDS011;59898;52.786;6.892;2022-10-31T14:16:32;17.80;;;7.75;;
52668;SDS011;59898;52.786;6.892;2022-10-31T14:20:22;10.52;;;6.65;;
52668;SDS011;59898;52.786;6.892;2022-10-31T14:23:38;12.77;;;7.10;;
52668;SDS011;59898;52.786;6.892;2022-10-31T14:30:39;9.52;;;6.70;;
52668;SDS011;59898;52.786;6.892;2022-10-31T14:34:20;11.00;;;7.07;;
52668;SDS011;59898;52.786;6.892;2022-10-31T14:38:03;12.68;;;7.70;;
52668;SDS011;59898;52.786;6.892;2022-10-31T14:53:12;11.00;;;7.85;;
52668;SDS011;59898;52.786;6.892;2022-10-31T14:56:46;13.37;;;7.13;;
52668;SDS011;59898;52.786;6.892;2022-10-31T15:00:12;10.75;;;6.93;;
52668;SDS011;59898;52.786;6.892;2022-10-31T15:03:38;17.20;;;8.13;;
52668;SDS011;59898;52.786;6.892;2022-10-31T15:07:12;13.15;;;8.13;;
52668;SDS011;59898;52.786;6.892;2022-10-31T15:10:37;12.60;;;7.90;;
52668;SDS011;59898;52.786;6.892;2022-10-31T15:13:58;14.43;;;9.27;;
52668;SDS011;59898;52.786;6.892;2022-10-31T15:17:22;15.13;;;9.57;;
52668;SDS011;59898;52.786;6.892;2022-10-31T15:20:45;12.73;;;9.40;;
52668;SDS011;59898;52.786;6.892;2022-10-31T15:24:10;16.42;;;9.95;;
52668;SDS011;59898;52.786;6.892;2022-10-31T15:27:34;14.40;;;9.75;;
52668;SDS011;59898;52.786;6.892;2022-10-31T15:30:56;12.95;;;9.38;;
52668;SDS011;59898;52.786;6.892;2022-10-31T15:34:26;12.85;;;9.20;;
52668;SDS011;59898;52.786;6.892;2022-10-31T15:44:50;14.65;;;11.80;;
52668;SDS011;59898;52.786;6.892;2022-10-31T15:48:17;16.08;;;10.38;;
52668;SDS011;59898;52.786;6.892;2022-10-31T15:51:42;21.33;;;12.45;;
52668;SDS011;59898;52.786;6.892;2022-10-31T15:55:04;14.65;;;10.57;;
52668;SDS011;59898;52.786;6.892;2022-10-31T15:58:35;19.25;;;11.75;;
52668;SDS011;59898;52.786;6.892;2022-10-31T16:02:03;21.95;;;12.20;;
52668;SDS011;59898;52.786;6.892;2022-10-31T16:06:04;18.08;;;13.32;;
52668;SDS011;59898;52.786;6.892;2022-10-31T16:09:21;17.50;;;13.50;;
52668;SDS011;59898;52.786;6.892;2022-10-31T16:12:44;18.33;;;13.05;;
52668;SDS011;59898;52.786;6.892;2022-10-31T16:16:13;24.80;;;13.48;;
52668;SDS011;59898;52.786;6.892;2022-10-31T16:19:36;19.45;;;13.77;;
52668;SDS011;59898;52.786;6.892;2022-10-31T16:23:11;20.80;;;14.30;;
52668;SDS011;59898;52.786;6.892;2022-10-31T16:30:00;23.98;;;14.73;;
52668;SDS011;59898;52.786;6.892;2022-10-31T16:33:28;23.27;;;16.02;;
52668;SDS011;59898;52.786;6.892;2022-10-31T16:36:55;26.42;;;16.08;;
52668;SDS011;59898;52.786;6.892;2022-10-31T16:40:16;27.08;;;16.90;;
52668;SDS011;59898;52.786;6.892;2022-10-31T16:43:37;24.25;;;17.10;;
52668;SDS011;59898;52.786;6.892;2022-10-31T16:50:30;28.02;;;18.00;;
52668;SDS011;59898;52.786;6.892;2022-10-31T16:53:51;29.60;;;20.02;;
52668;SDS011;59898;52.786;6.892;2022-10-31T16:57:14;31.60;;;19.42;;
52668;SDS011;59898;52.786;6.892;2022-10-31T17:00:38;30.80;;;19.52;;
52668;SDS011;59898;52.786;6.892;2022-10-31T17:03:58;34.40;;;20.75;;
52668;SDS011;59898;52.786;6.892;2022-10-31T17:07:19;29.63;;;19.85;;
52668;SDS011;59898;52.786;6.892;2022-10-31T17:10:40;31.58;;;21.17;;
52668;SDS011;59898;52.786;6.892;2022-10-31T17:14:02;30.07;;;20.77;;
52668;SDS011;59898;52.786;6.892;2022-10-31T17:17:24;30.85;;;20.38;;
52668;SDS011;59898;52.786;6.892;2022-10-31T17:20:44;33.58;;;21.13;;
52668;SDS011;59898;52.786;6.892;2022-10-31T17:24:06;31.67;;;21.30;;
52668;SDS011;59898;52.786;6.892;2022-10-31T17:27:31;31.55;;;21.58;;
52668;SDS011;59898;52.786;6.892;2022-10-31T17:30:53;30.90;;;21.70;;
52668;SDS011;59898;52.786;6.892;2022-10-31T17:34:18;34.10;;;22.10;;
52668;SDS011;59898;52.786;6.892;2022-10-31T17:37:38;36.05;;;23.20;;
52668;SDS011;59898;52.786;6.892;2022-10-31T17:41:03;33.13;;;21.33;;
52668;SDS011;59898;52.786;6.892;2022-10-31T17:44:25;37.83;;;22.45;;
52668;SDS011;59898;52.786;6.892;2022-10-31T17:47:49;28.77;;;19.83;;
52668;SDS011;59898;52.786;6.892;2022-10-31T17:51:11;27.85;;;19.77;;
52668;SDS011;59898;52.786;6.892;2022-10-31T17:54:32;35.00;;;23.45;;
52668;SDS011;59898;52.786;6.892;2022-10-31T17:57:52;37.67;;;20.98;;
52668;SDS011;59898;52.786;6.892;2022-10-31T18:01:14;28.67;;;20.23;;
52668;SDS011;59898;52.786;6.892;2022-10-31T18:04:36;37.88;;;22.73;;
52668;SDS011;59898;52.786;6.892;2022-10-31T18:07:59;33.70;;;22.95;;
52668;SDS011;59898;52.786;6.892;2022-10-31T18:11:20;29.50;;;20.70;;
52668;SDS011;59898;52.786;6.892;2022-10-31T18:14:41;30.52;;;21.27;;
52668;SDS011;59898;52.786;6.892;2022-10-31T18:18:02;29.15;;;22.38;;
52668;SDS011;59898;52.786;6.892;2022-10-31T18:21:24;34.97;;;20.30;;
52668;SDS011;59898;52.786;6.892;2022-10-31T18:24:45;36.22;;;21.95;;
52668;SDS011;59898;52.786;6.892;2022-10-31T18:28:05;30.25;;;18.92;;
52668;SDS011;59898;52.786;6.892;2022-10-31T18:31:26;28.30;;;20.35;;
52668;SDS011;59898;52.786;6.892;2022-10-31T18:34:47;29.45;;;18.38;;
52668;SDS011;59898;52.786;6.892;2022-10-31T18:38:08;22.63;;;17.90;;
52668;SDS011;59898;52.786;6.892;2022-10-31T18:41:28;26.50;;;17.10;;
52668;SDS011;59898;52.786;6.892;2022-10-31T18:44:49;30.30;;;19.10;;
52668;SDS011;59898;52.786;6.892;2022-10-31T18:48:11;26.92;;;18.17;;
52668;SDS011;59898;52.786;6.892;2022-10-31T18:51:33;24.67;;;17.77;;
52668;SDS011;59898;52.786;6.892;2022-10-31T18:54:54;28.85;;;18.92;;
52668;SDS011;59898;52.786;6.892;2022-10-31T18:58:14;22.60;;;17.42;;
52668;SDS011;59898;52.786;6.892;2022-10-31T19:01:35;27.33;;;18.33;;
52668;SDS011;59898;52.786;6.892;2022-10-31T19:04:56;29.00;;;17.52;;
52668;SDS011;59898;52.786;6.892;2022-10-31T19:08:17;27.30;;;18.17;;
52668;SDS011;59898;52.786;6.892;2022-10-31T19:11:37;26.98;;;17.33;;
52668;SDS011;59898;52.786;6.892;2022-10-31T19:14:58;24.10;;;17.35;;
52668;SDS011;59898;52.786;6.892;2022-10-31T19:18:19;24.50;;;17.25;;
52668;SDS011;59898;52.786;6.892;2022-10-31T19:21:40;33.35;;;17.83;;
52668;SDS011;59898;52.786;6.892;2022-10-31T19:25:00;27.50;;;17.50;;
52668;SDS011;59898;52.786;6.892;2022-10-31T19:28:21;26.98;;;18.60;;
52668;SDS011;59898;52.786;6.892;2022-10-31T19:31:42;30.15;;;17.42;;
52668;SDS011;59898;52.786;6.892;2022-10-31T19:35:03;26.92;;;16.38;;
52668;SDS011;59898;52.786;6.892;2022-10-31T19:38:28;27.58;;;17.90;;
52668;SDS011;59898;52.786;6.892;2022-10-31T19:41:48;35.05;;;17.90;;
52668;SDS011;59898;52.786;6.892;2022-10-31T19:45:09;32.42;;;16.25;;
52668;SDS011;59898;52.786;6.892;2022-10-31T19:48:30;28.10;;;15.30;;
52668;SDS011;59898;52.786;6.892;2022-10-31T19:51:51;25.20;;;17.02;;
52668;SDS011;59898;52.786;6.892;2022-10-31T19:55:12;23.20;;;16.50;;
52668;SDS011;59898;52.786;6.892;2022-10-31T19:58:32;27.20;;;15.80;;
52668;SDS011;59898;52.786;6.892;2022-10-31T20:01:53;28.05;;;15.73;;
52668;SDS011;59898;52.786;6.892;2022-10-31T20:05:14;23.52;;;15.32;;
52668;SDS011;59898;52.786;6.892;2022-10-31T20:08:34;24.50;;;16.02;;
52668;SDS011;59898;52.786;6.892;2022-10-31T20:11:55;25.75;;;15.15;;
52668;SDS011;59898;52.786;6.892;2022-10-31T20:15:16;29.48;;;15.68;;
52668;SDS011;59898;52.786;6.892;2022-10-31T20:18:37;23.95;;;15.13;;
52668;SDS011;59898;52.786;6.892;2022-10-31T20:21:58;25.77;;;15.77;;
52668;SDS011;59898;52.786;6.892;2022-10-31T20:25:19;23.50;;;14.85;;
52668;SDS011;59898;52.786;6.892;2022-10-31T20:28:40;27.20;;;16.42;;
52668;SDS011;59898;52.786;6.892;2022-10-31T20:32:01;19.50;;;14.00;;
52668;SDS011;59898;52.786;6.892;2022-10-31T20:35:21;24.05;;;14.68;;
52668;SDS011;59898;52.786;6.892;2022-10-31T20:38:42;21.58;;;14.15;;
52668;SDS011;59898;52.786;6.892;2022-10-31T20:42:03;20.23;;;14.95;;
52668;SDS011;59898;52.786;6.892;2022-10-31T20:45:24;22.55;;;14.98;;
52668;SDS011;59898;52.786;6.892;2022-10-31T20:48:45;20.35;;;14.00;;
52668;SDS011;59898;52.786;6.892;2022-10-31T20:52:06;24.88;;;13.75;;
52668;SDS011;59898;52.786;6.892;2022-10-31T20:55:26;21.02;;;13.32;;
52668;SDS011;59898;52.786;6.892;2022-10-31T20:58:47;18.70;;;13.32;;
52668;SDS011;59898;52.786;6.892;2022-10-31T21:02:08;21.02;;;13.93;;
52668;SDS011;59898;52.786;6.892;2022-10-31T21:05:29;24.77;;;14.82;;
52668;SDS011;59898;52.786;6.892;2022-10-31T21:08:50;20.48;;;12.15;;
52668;SDS011;59898;52.786;6.892;2022-10-31T21:12:12;25.80;;;14.23;;
52668;SDS011;59898;52.786;6.892;2022-10-31T21:15:33;23.15;;;12.93;;
52668;SDS011;59898;52.786;6.892;2022-10-31T21:18:54;25.42;;;14.48;;
52668;SDS011;59898;52.786;6.892;2022-10-31T21:22:14;24.50;;;15.95;;
52668;SDS011;59898;52.786;6.892;2022-10-31T21:25:36;25.92;;;16.17;;
52668;SDS011;59898;52.786;6.892;2022-10-31T21:29:00;23.02;;;15.90;;
52668;SDS011;59898;52.786;6.892;2022-10-31T21:32:22;32.97;;;15.20;;
52668;SDS011;59898;52.786;6.892;2022-10-31T21:35:49;27.48;;;15.32;;
52668;SDS011;59898;52.786;6.892;2022-10-31T21:39:10;24.60;;;15.90;;
52668;SDS011;59898;52.786;6.892;2022-10-31T21:42:31;19.95;;;14.85;;
52668;SDS011;59898;52.786;6.892;2022-10-31T21:45:52;23.35;;;13.93;;
52668;SDS011;59898;52.786;6.892;2022-10-31T21:49:13;23.30;;;15.35;;
52668;SDS011;59898;52.786;6.892;2022-10-31T21:52:34;27.73;;;14.27;;
52668;SDS011;59898;52.786;6.892;2022-10-31T21:55:54;21.35;;;13.63;;
52668;SDS011;59898;52.786;6.892;2022-10-31T21:59:15;23.15;;;15.35;;
52668;SDS011;59898;52.786;6.892;2022-10-31T22:02:36;23.15;;;14.05;;
52668;SDS011;59898;52.786;6.892;2022-10-31T22:06:00;24.58;;;13.45;;
52668;SDS011;59898;52.786;6.892;2022-10-31T22:09:21;20.08;;;13.52;;
52668;SDS011;59898;52.786;6.892;2022-10-31T22:12:42;19.35;;;14.00;;
52668;SDS011;59898;52.786;6.892;2022-10-31T22:16:05;23.17;;;14.52;;
52668;SDS011;59898;52.786;6.892;2022-10-31T22:19:28;21.10;;;13.60;;
52668;SDS011;59898;52.786;6.892;2022-10-31T22:22:48;19.23;;;11.98;;
52668;SDS011;59898;52.786;6.892;2022-10-31T22:26:13;19.92;;;13.43;;
52668;SDS011;59898;52.786;6.892;2022-10-31T22:29:35;18.52;;;12.55;;
52668;SDS011;59898;52.786;6.892;2022-10-31T22:32:56;22.88;;;12.75;;
52668;SDS011;59898;52.786;6.892;2022-10-31T22:36:18;17.30;;;12.30;;